createdAt,value
2023-08-30T00:10:10.382Z,27.9
2023-08-30T01:32:01.039Z,27.8
2023-08-30T01:43:28.423Z,27.8
2023-08-30T01:49:20.414Z,27.8
2023-08-30T02:00:47.270Z,27.8
2023-08-30T02:06:39.253Z,27.8
2023-08-30T02:18:08.309Z,27.8
2023-08-30T02:40:38.203Z,27.9
2023-08-30T02:46:17.533Z,27.9
2023-08-30T02:51:53.491Z,27.9
2023-08-30T02:57:45.088Z,27.9
2023-08-30T03:03:37.513Z,27.9
2023-08-30T03:09:30.866Z,27.9
2023-08-30T03:15:22.493Z,27.9
2023-08-30T03:21:14.645Z,27.9
2023-08-30T03:27:05.705Z,27.9
2023-08-30T03:32:58.408Z,27.9
2023-08-30T03:38:49.976Z,27.9
2023-08-30T03:44:10.400Z,27.9
2023-08-30T03:49:32.806Z,27.9
2023-08-30T03:54:54.055Z,27.9
2023-08-30T04:00:17.195Z,27.9
2023-08-30T04:05:54.652Z,27.9
2023-08-30T04:11:16.297Z,27.9
2023-08-30T04:16:54.288Z,27.9
2023-08-30T04:33:01.846Z,27.8
2023-08-30T04:39:04.876Z,27.8
2023-08-30T04:44:56.955Z,27.7
2023-08-30T04:50:51.267Z,27.6
2023-08-30T04:56:43.813Z,27.6
2023-08-30T05:02:36.014Z,27.6
2023-08-30T05:08:28.000Z,27.6
2023-08-30T05:14:20.207Z,27.5
2023-08-30T05:19:59.519Z,27.4
2023-08-30T05:25:52.549Z,27.4
2023-08-30T05:31:44.680Z,27.4
2023-08-30T05:37:37.565Z,27.4
2023-08-30T05:43:29.106Z,27.4
2023-08-30T05:49:20.994Z,27.4
2023-08-30T05:55:12.637Z,27.4
2023-08-30T06:01:05.637Z,27.3
2023-08-30T06:06:58.133Z,27.4
2023-08-30T06:12:49.549Z,30.5
2023-08-30T06:18:39.509Z,30.9
2023-08-30T06:24:31.815Z,31.3
2023-08-30T06:30:37.133Z,31.9
2023-08-30T06:36:12.921Z,32.4
2023-08-30T06:42:07.588Z,32.8
2023-08-30T06:47:58.978Z,32.8
2023-08-30T06:53:36.018Z,32.9
2023-08-30T06:59:12.946Z,33
2023-08-30T07:04:49.061Z,33.2
2023-08-30T07:10:27.857Z,33.8
2023-08-30T07:16:19.563Z,34.8
2023-08-30T07:22:07.150Z,35.1
2023-08-30T07:27:43.022Z,36.1
2023-08-30T07:33:22.342Z,37.1
2023-08-30T07:39:32.322Z,38.1
2023-08-30T07:45:28.335Z,39.1
2023-08-30T07:51:20.326Z,39.6
2023-08-30T07:57:29.624Z,40.3
2023-08-30T08:03:21.658Z,41.3
2023-08-30T08:09:26.215Z,42.1
2023-08-30T08:15:18.312Z,42.8
2023-08-30T08:20:55.477Z,43.3
2023-08-30T08:26:49.865Z,44.1
2023-08-30T08:32:41.577Z,44.8
2023-08-30T08:38:34.943Z,45.4
2023-08-30T08:44:38.839Z,45.9
2023-08-30T08:50:30.796Z,46.6
2023-08-30T08:56:29.967Z,47.2
2023-08-30T09:02:39.793Z,47.7
2023-08-30T09:08:33.806Z,48.4
2023-08-30T09:14:36.319Z,48.8
2023-08-30T09:20:42.679Z,49.4
2023-08-30T09:26:34.250Z,49.9
2023-08-30T09:32:39.570Z,50.5
2023-08-30T09:38:31.947Z,51
2023-08-30T09:44:47.140Z,51.6
2023-08-30T09:50:50.477Z,52.3
2023-08-30T10:34:01.375Z,52.8
2023-08-30T10:39:52.882Z,54.6
2023-08-30T10:46:03.792Z,54
2023-08-30T10:51:56.424Z,54.3
2023-08-30T10:57:48.586Z,54.1
2023-08-30T11:03:41.446Z,55
2023-08-30T11:09:34.476Z,55.9
2023-08-30T11:15:26.963Z,56.3
2023-08-30T11:21:18.132Z,56.4
2023-08-30T11:26:55.815Z,56.6
2023-08-30T11:32:32.966Z,57.1
2023-08-30T11:37:52.752Z,57.5
2023-08-30T11:43:41.580Z,57.8
2023-08-30T11:49:20.179Z,58
2023-08-30T11:55:03.114Z,58.2
2023-08-30T12:00:38.888Z,58.5
2023-08-30T12:06:32.105Z,58.6
2023-08-30T12:12:23.545Z,58.9
2023-08-30T12:17:59.875Z,59.2
2023-08-30T12:23:37.312Z,59.3
2023-08-30T12:29:27.798Z,59.4
2023-08-30T12:35:04.084Z,59.6
2023-08-30T12:40:44.020Z,59.7
2023-08-30T12:46:20.184Z,59.6
2023-08-30T12:51:56.687Z,59.7
2023-08-30T12:57:49.191Z,59.7
2023-08-30T13:03:27.287Z,59.8
2023-08-30T13:09:18.939Z,59.8
2023-08-30T13:14:55.906Z,59.9
2023-08-30T13:20:31.720Z,59.8
2023-08-30T13:26:02.092Z,59.8
2023-08-30T13:31:39.556Z,59.6
2023-08-30T13:37:15.822Z,59.5
2023-08-30T13:42:52.153Z,59.4
2023-08-30T13:48:33.987Z,59.2
2023-08-30T13:54:09.994Z,58.9
2023-08-30T13:59:46.370Z,58.7
2023-08-30T14:05:39.495Z,58.4
2023-08-30T14:11:17.876Z,57.8
2023-08-30T14:17:12.108Z,57.6
2023-08-30T14:22:49.524Z,56.9
2023-08-30T14:28:44.046Z,55.3
2023-08-30T14:34:37.551Z,52.5
2023-08-30T14:40:30.669Z,49.9
2023-08-30T14:46:23.593Z,47.9
2023-08-30T14:52:17.159Z,46.4
2023-08-30T14:58:10.741Z,45.3
2023-08-30T15:04:05.516Z,44.4
2023-08-30T15:09:57.398Z,43.9
2023-08-30T15:15:51.466Z,43.4
2023-08-30T15:21:44.250Z,43
2023-08-30T15:27:36.144Z,42.6
2023-08-30T15:33:29.148Z,41.6
2023-08-30T15:39:06.371Z,39.7
2023-08-30T15:44:57.866Z,45.4
2023-08-30T15:50:35.198Z,42.7
2023-08-30T15:56:39.513Z,40.8
2023-08-30T16:02:31.212Z,39.5
2023-08-30T16:08:26.450Z,38.6
2023-08-30T16:14:18.298Z,37.9
2023-08-30T16:20:10.044Z,37.3
2023-08-30T16:26:03.075Z,36.8
2023-08-30T16:31:54.499Z,36.4
2023-08-30T16:37:47.293Z,36
2023-08-30T16:43:43.336Z,35.6
2023-08-30T16:49:58.614Z,35.3
2023-08-30T16:55:50.206Z,34.9
2023-08-30T17:01:45.171Z,34.6
2023-08-30T17:07:37.321Z,34.4
2023-08-30T17:13:29.639Z,34.1
2023-08-30T17:19:25.058Z,33.9
2023-08-30T17:24:45.744Z,33.8
2023-08-30T17:30:21.667Z,33.6
2023-08-30T17:36:14.262Z,33.4
2023-08-30T17:42:12.191Z,33.2
2023-08-30T17:47:55.522Z,32.9
2023-08-30T17:53:33.188Z,32.8
2023-08-30T17:59:23.970Z,32.6
2023-08-30T18:05:16.811Z,32.5
2023-08-30T18:10:56.166Z,32.4
2023-08-30T18:16:47.967Z,32.3
2023-08-30T18:22:24.163Z,32.1
2023-08-30T18:27:46.854Z,32
2023-08-30T18:33:39.169Z,31.9
2023-08-30T18:39:31.818Z,31.8
2023-08-30T18:45:34.847Z,31.7
2023-08-30T18:51:12.541Z,31.6
2023-08-30T18:57:07.517Z,31.5
2023-08-30T19:02:31.147Z,31.4
2023-08-30T19:08:09.036Z,31.3
2023-08-30T19:14:04.015Z,31.2
2023-08-30T19:19:58.138Z,31
2023-08-30T19:25:35.872Z,30.9
2023-08-30T19:31:13.815Z,30.8
2023-08-30T19:37:08.218Z,30.7
2023-08-30T19:43:00.587Z,30.6
2023-08-30T19:48:54.248Z,30.5
2023-08-30T19:54:47.500Z,30.4
2023-08-30T20:00:40.774Z,30.4
2023-08-30T20:06:36.649Z,30.3
2023-08-30T20:12:28.795Z,30.3
2023-08-30T20:18:23.283Z,30.2
2023-08-30T20:24:15.593Z,30.1
2023-08-30T20:29:54.573Z,30.1
2023-08-30T20:35:31.155Z,30.1
2023-08-30T20:41:30.610Z,30
2023-08-30T20:47:33.295Z,30
2023-08-30T20:52:54.687Z,29.9
2023-08-30T20:59:02.879Z,29.9
2023-08-30T21:04:56.165Z,29.9
2023-08-30T21:10:47.635Z,29.9
2023-08-30T21:16:46.674Z,29.8
2023-08-30T21:22:08.287Z,29.8
2023-08-30T21:28:01.087Z,29.8
2023-08-30T21:33:53.445Z,29.8
2023-08-30T21:39:47.038Z,29.8
2023-08-30T21:45:40.045Z,29.8
2023-08-30T21:51:32.031Z,29.7
2023-08-30T21:57:24.456Z,29.7
2023-08-30T22:03:16.470Z,29.7
2023-08-30T22:09:09.069Z,29.7
2023-08-30T22:15:06.372Z,29.6
2023-08-30T22:20:57.661Z,29.7
2023-08-30T22:26:34.454Z,29.6
2023-08-30T22:32:26.520Z,29.6
2023-08-30T22:38:19.885Z,29.6
2023-08-30T22:43:56.183Z,29.6
2023-08-30T22:49:48.823Z,29.6
2023-08-30T22:55:50.348Z,29.6
2023-08-30T23:01:42.360Z,29.6
2023-08-30T23:07:20.515Z,29.6
2023-08-30T23:13:12.216Z,29.6
2023-08-30T23:18:48.870Z,29.5
2023-08-30T23:24:40.989Z,29.5
2023-08-30T23:30:16.247Z,29.6
2023-08-30T23:36:07.746Z,29.5
2023-08-30T23:42:03.003Z,29.5
2023-08-30T23:47:55.906Z,29.5
2023-08-30T23:53:32.913Z,29.5
2023-08-30T23:59:09.018Z,29.4
